Time;durP1;ratioP1;P1;durP2;ratioP2;P2;SDS_P1;SDS_P2;PMS_P1;PMS_P2;Temp;Humidity;BMP_temperature;BMP_pressure;BME280_temperature;BME280_humidity;BME280_pressure;Samples;Min_cycle;Max_cycle;Signal;HPM_P1;HPM_P2
2023/01/22 00:01:58;;;;;;;9.37;7.30;;;0.70;99.90;;;;;;5062178;28;20179;-88
2023/01/22 00:04:24;;;;;;;9.93;7.67;;;0.60;99.90;;;;;;5079060;28;20215;-92
2023/01/22 00:06:50;;;;;;;8.43;7.53;;;0.60;99.90;;;;;;5078932;28;20176;-90
2023/01/22 00:09:21;;;;;;;9.40;7.40;;;0.60;99.90;;;;;;5079465;28;20191;-90
2023/01/22 00:11:47;;;;;;;12.40;8.70;;;0.50;99.90;;;;;;5079551;28;20192;-89
2023/01/22 00:14:13;;;;;;;9.67;7.17;;;0.50;99.90;;;;;;5079457;28;20262;-90
2023/01/22 00:16:40;;;;;;;8.13;6.93;;;0.50;99.90;;;;;;5079302;28;20234;-89
2023/01/22 00:19:06;;;;;;;9.30;7.30;;;0.40;99.90;;;;;;5079314;28;20223;-89
2023/01/22 00:21:33;;;;;;;9.97;6.83;;;0.50;99.90;;;;;;5080132;28;20218;-89
2023/01/22 00:23:59;;;;;;;8.63;7.70;;;0.50;99.90;;;;;;5080251;28;20176;-91
2023/01/22 00:26:24;;;;;;;9.73;7.37;;;0.60;99.90;;;;;;5083589;28;20191;-90
2023/01/22 00:28:50;;;;;;;8.63;7.03;;;0.60;99.90;;;;;;5080061;28;20218;-89
2023/01/22 00:31:17;;;;;;;9.40;7.70;;;0.60;99.90;;;;;;5062380;28;20180;-89
2023/01/22 00:33:44;;;;;;;9.43;8.30;;;0.70;99.90;;;;;;5080020;28;20188;-90
2023/01/22 00:36:14;;;;;;;8.37;7.53;;;0.70;99.90;;;;;;5079259;28;20300;-89
2023/01/22 00:38:40;;;;;;;7.97;7.17;;;0.60;99.90;;;;;;5080172;28;20255;-90
2023/01/22 00:41:06;;;;;;;8.77;7.87;;;0.60;99.90;;;;;;5091894;28;20183;-95
2023/01/22 00:43:34;;;;;;;8.83;7.93;;;0.70;99.90;;;;;;5095783;28;20175;-92
2023/01/22 00:46:00;;;;;;;9.73;7.07;;;0.70;99.90;;;;;;5095741;28;20187;-93
2023/01/22 00:48:26;;;;;;;11.40;8.40;;;0.60;99.90;;;;;;5096257;28;20782;-94
2023/01/22 00:50:51;;;;;;;7.93;7.13;;;0.60;99.90;;;;;;5095979;28;20207;-92
2023/01/22 00:53:17;;;;;;;9.57;7.70;;;0.60;99.90;;;;;;5085790;28;20286;-90
2023/01/22 00:56:10;;;;;;;10.40;7.50;;;0.60;99.90;;;;;;5078578;28;20186;-90
2023/01/22 00:58:35;;;;;;;8.43;7.47;;;0.60;99.90;;;;;;5076264;28;20276;-89
2023/01/22 01:01:01;;;;;;;10.17;7.30;;;0.60;99.90;;;;;;5078795;28;20264;-89
2023/01/22 01:03:30;;;;;;;9.03;8.10;;;0.60;99.90;;;;;;5078861;28;20285;-89
2023/01/22 01:06:00;;;;;;;10.67;7.83;;;0.60;99.90;;;;;;5078636;28;20179;-90
2023/01/22 01:08:27;;;;;;;11.17;7.67;;;0.60;99.90;;;;;;5078744;28;20208;-90
2023/01/22 01:11:02;;;;;;;9.30;7.07;;;0.60;99.90;;;;;;5061167;28;20190;-89
2023/01/22 01:13:31;;;;;;;10.17;7.80;;;0.50;99.90;;;;;;5078469;28;20193;-90
2023/01/22 01:16:02;;;;;;;10.07;7.97;;;0.50;99.90;;;;;;5078867;28;20194;-90
2023/01/22 01:18:29;;;;;;;8.50;7.27;;;0.60;99.90;;;;;;5076415;28;20196;-90
2023/01/22 01:20:56;;;;;;;8.87;7.90;;;0.60;99.90;;;;;;5079551;28;20483;-91
2023/01/22 01:23:23;;;;;;;8.13;7.23;;;0.60;99.90;;;;;;5082992;28;20203;-90
2023/01/22 01:25:49;;;;;;;8.17;6.80;;;0.60;99.90;;;;;;5078737;28;20237;-89
2023/01/22 01:28:15;;;;;;;8.47;7.60;;;0.70;99.90;;;;;;5079288;28;20208;-90
2023/01/22 01:30:40;;;;;;;9.97;7.93;;;0.70;99.90;;;;;;5078852;28;20220;-89
2023/01/22 01:33:06;;;;;;;9.63;7.27;;;0.80;99.90;;;;;;5078215;28;20688;-89
2023/01/22 01:35:31;;;;;;;10.07;7.50;;;0.70;99.90;;;;;;5078431;28;20171;-89
2023/01/22 01:37:57;;;;;;;9.27;7.73;;;0.80;99.90;;;;;;5078516;28;20260;-89
2023/01/22 01:40:23;;;;;;;10.00;7.93;;;0.80;99.90;;;;;;5078002;28;20179;-90
2023/01/22 01:42:48;;;;;;;9.87;8.13;;;0.80;99.90;;;;;;5077083;28;20168;-91
2023/01/22 01:45:23;;;;;;;9.17;7.80;;;0.80;99.90;;;;;;5077353;28;20541;-89
2023/01/22 01:47:55;;;;;;;10.73;8.00;;;0.80;99.90;;;;;;5077645;28;20191;-90
2023/01/22 01:50:24;;;;;;;9.43;7.20;;;0.80;99.90;;;;;;5081230;28;20186;-90
2023/01/22 01:52:49;;;;;;;10.50;7.30;;;0.80;99.90;;;;;;5063082;28;20266;-89
2023/01/22 01:55:23;;;;;;;9.87;8.60;;;0.80;99.90;;;;;;5081975;28;20261;-89
2023/01/22 01:57:50;;;;;;;9.00;7.70;;;0.70;99.90;;;;;;5063892;28;20207;-90
2023/01/22 02:00:17;;;;;;;9.60;8.30;;;0.60;99.90;;;;;;5081933;28;20168;-89
2023/01/22 02:02:43;;;;;;;11.80;7.53;;;0.60;99.90;;;;;;5081258;28;20633;-88
2023/01/22 02:05:09;;;;;;;10.40;8.47;;;0.60;99.90;;;;;;5082970;28;20182;-91
2023/01/22 02:07:35;;;;;;;12.37;8.93;;;0.60;99.90;;;;;;5081444;28;20742;-92
2023/01/22 02:10:05;;;;;;;10.67;8.13;;;0.50;99.90;;;;;;5081868;28;20214;-90
2023/01/22 02:12:32;;;;;;;10.47;7.80;;;0.50;99.90;;;;;;5081361;28;20175;-88
2023/01/22 02:15:02;;;;;;;10.27;8.10;;;0.60;99.90;;;;;;5071678;28;20676;-90
2023/01/22 02:17:27;;;;;;;9.70;8.43;;;0.60;99.90;;;;;;5081127;28;20207;-89
2023/01/22 02:19:53;;;;;;;8.80;7.80;;;0.60;99.90;;;;;;5082471;28;20182;-89
2023/01/22 02:22:21;;;;;;;9.63;7.57;;;0.50;99.90;;;;;;5081223;28;20179;-89
2023/01/22 02:24:48;;;;;;;9.67;8.03;;;0.40;99.90;;;;;;5063427;28;20266;-89
2023/01/22 02:27:14;;;;;;;10.27;8.70;;;0.60;99.90;;;;;;5063589;28;20277;-89
2023/01/22 02:29:40;;;;;;;11.20;8.83;;;0.60;99.90;;;;;;5063568;28;20196;-90
2023/01/22 02:32:06;;;;;;;11.00;8.40;;;0.60;99.90;;;;;;5075962;28;20203;-90
2023/01/22 02:34:31;;;;;;;10.43;8.47;;;0.50;99.90;;;;;;5082049;28;20180;-88
2023/01/22 02:36:57;;;;;;;8.90;7.97;;;0.60;99.90;;;;;;5080089;28;20302;-89
2023/01/22 02:39:23;;;;;;;9.73;8.30;;;0.60;99.90;;;;;;5081521;28;20186;-89
2023/01/22 02:41:49;;;;;;;9.57;8.57;;;0.70;99.90;;;;;;5081594;28;20176;-89
2023/01/22 02:44:14;;;;;;;9.37;8.33;;;0.70;99.90;;;;;;5082101;28;20279;-88
2023/01/22 02:46:40;;;;;;;8.67;7.77;;;0.70;99.90;;;;;;5082463;28;20182;-89
2023/01/22 02:49:05;;;;;;;10.07;8.20;;;0.70;99.90;;;;;;5066979;28;20226;-88
2023/01/22 02:51:32;;;;;;;10.13;8.20;;;0.80;99.90;;;;;;5086874;28;20195;-89
2023/01/22 02:53:58;;;;;;;11.37;8.80;;;0.80;99.90;;;;;;5082627;28;20233;-88
2023/01/22 02:56:23;;;;;;;9.20;8.27;;;0.90;99.90;;;;;;5064288;28;20237;-89
2023/01/22 02:58:49;;;;;;;9.63;7.87;;;0.90;99.90;;;;;;5082259;28;20259;-88
2023/01/22 03:01:22;;;;;;;8.00;7.23;;;0.90;99.90;;;;;;5081923;28;20282;-90
2023/01/22 03:03:48;;;;;;;9.97;8.10;;;0.90;99.90;;;;;;5082898;28;20176;-89
2023/01/22 03:06:14;;;;;;;9.60;8.57;;;0.90;99.90;;;;;;5082819;28;20179;-89
2023/01/22 03:08:43;;;;;;;10.40;8.07;;;0.90;99.90;;;;;;5082306;28;20278;-89
2023/01/22 03:11:11;;;;;;;11.07;8.50;;;0.90;99.90;;;;;;5082392;28;20190;-89
2023/01/22 03:21:50;;;;;;;9.97;8.97;;;0.80;99.90;;;;;;5087736;28;20167;-90
2023/01/22 03:24:17;;;;;;;9.17;8.23;;;0.90;99.90;;;;;;5086897;28;20172;-89
2023/01/22 03:26:42;;;;;;;11.43;9.13;;;0.80;99.90;;;;;;5086497;28;20435;-88
2023/01/22 03:29:08;;;;;;;10.73;8.87;;;0.80;99.90;;;;;;5086976;28;20225;-88
2023/01/22 03:31:34;;;;;;;11.27;8.87;;;0.80;99.90;;;;;;5086772;28;20198;-89
2023/01/22 03:33:59;;;;;;;9.70;8.73;;;0.80;99.90;;;;;;5086261;28;20183;-89
2023/01/22 03:36:25;;;;;;;9.70;8.70;;;0.80;99.90;;;;;;5085657;28;20199;-89
2023/01/22 03:38:51;;;;;;;10.53;8.50;;;0.90;99.90;;;;;;5086725;28;20227;-91
2023/01/22 03:41:17;;;;;;;9.90;8.83;;;0.90;99.90;;;;;;5086210;28;20615;-89
2023/01/22 03:43:44;;;;;;;10.20;9.03;;;0.90;99.90;;;;;;5086004;28;20171;-91
2023/01/22 03:46:12;;;;;;;9.63;8.67;;;1.00;99.90;;;;;;5086288;28;20259;-89
2023/01/22 03:48:38;;;;;;;10.37;8.60;;;0.90;99.90;;;;;;5086131;28;20227;-88
2023/01/22 03:51:09;;;;;;;10.97;9.27;;;0.90;99.90;;;;;;5068710;28;20831;-88
2023/01/22 03:53:35;;;;;;;10.17;9.00;;;0.90;99.90;;;;;;5086099;28;20187;-88
2023/01/22 03:56:04;;;;;;;11.97;8.97;;;0.90;99.90;;;;;;5085913;28;20177;-89
2023/01/22 03:58:31;;;;;;;8.90;8.00;;;0.90;99.90;;;;;;5085154;28;20214;-89
2023/01/22 04:01:00;;;;;;;10.97;8.27;;;0.90;99.90;;;;;;5085600;28;20695;-90
2023/01/22 04:03:27;;;;;;;11.43;8.93;;;0.90;99.90;;;;;;5086251;28;20168;-89
2023/01/22 04:05:53;;;;;;;10.77;8.77;;;1.00;99.90;;;;;;5086109;28;20222;-88
2023/01/22 04:08:20;;;;;;;9.63;8.40;;;1.00;99.90;;;;;;5085396;28;20278;-89
2023/01/22 04:10:46;;;;;;;11.37;8.93;;;1.00;99.90;;;;;;5084715;28;20168;-89
2023/01/22 04:13:13;;;;;;;10.30;8.47;;;1.10;99.90;;;;;;5084910;28;20202;-90
2023/01/22 04:15:38;;;;;;;10.83;8.50;;;1.10;99.90;;;;;;5085872;28;20188;-89
2023/01/22 04:18:04;;;;;;;11.83;9.53;;;1.10;99.90;;;;;;5069811;28;20216;-89
2023/01/22 04:20:30;;;;;;;11.47;9.00;;;1.00;99.90;;;;;;5055918;28;20185;-92
2023/01/22 04:22:56;;;;;;;11.70;9.10;;;1.10;99.90;;;;;;5078694;28;20156;-94
2023/01/22 04:25:21;;;;;;;10.33;8.47;;;1.10;99.90;;;;;;5074745;28;20642;-89
2023/01/22 04:27:47;;;;;;;11.23;9.30;;;1.10;99.90;;;;;;5065588;28;20200;-88
2023/01/22 04:30:13;;;;;;;9.03;8.07;;;1.10;99.90;;;;;;5056121;28;20206;-88
2023/01/22 04:32:38;;;;;;;9.43;8.20;;;1.10;99.90;;;;;;5067216;28;20184;-89
2023/01/22 04:35:05;;;;;;;8.50;7.67;;;1.10;99.90;;;;;;5067286;28;20190;-87
2023/01/22 04:37:30;;;;;;;8.97;7.83;;;1.10;99.90;;;;;;5066806;28;20219;-90
2023/01/22 04:39:56;;;;;;;9.03;8.00;;;1.10;99.90;;;;;;5067044;28;20211;-87
2023/01/22 04:42:22;;;;;;;8.67;7.77;;;1.10;99.90;;;;;;5067065;28;20179;-88
2023/01/22 04:44:47;;;;;;;10.63;8.30;;;1.30;99.90;;;;;;5066749;28;20179;-91
2023/01/22 04:47:13;;;;;;;9.20;7.97;;;1.20;99.90;;;;;;5084672;28;20206;-89
2023/01/22 04:49:39;;;;;;;8.53;7.63;;;1.30;99.90;;;;;;5084759;28;20249;-87
2023/01/22 04:52:04;;;;;;;10.70;8.50;;;1.20;99.90;;;;;;5084298;28;20179;-92
2023/01/22 04:54:30;;;;;;;9.93;7.73;;;1.20;99.90;;;;;;5085284;28;20184;-87
2023/01/22 04:56:56;;;;;;;12.43;9.27;;;1.20;99.90;;;;;;5084559;28;20207;-89
2023/01/22 04:59:22;;;;;;;10.13;8.57;;;1.20;99.90;;;;;;5084833;28;20211;-89
2023/01/22 05:01:51;;;;;;;8.70;7.80;;;1.20;99.90;;;;;;5084858;28;20181;-88
2023/01/22 05:04:18;;;;;;;11.33;8.93;;;1.10;99.90;;;;;;5063962;28;20310;-90
2023/01/22 05:06:45;;;;;;;10.50;8.43;;;1.10;99.90;;;;;;5084855;28;20183;-89
2023/01/22 05:09:10;;;;;;;9.90;8.40;;;1.10;99.90;;;;;;5067050;28;20190;-88
2023/01/22 05:11:36;;;;;;;9.63;8.40;;;1.10;99.90;;;;;;5067081;28;20183;-88
2023/01/22 05:14:02;;;;;;;10.00;8.43;;;1.00;99.90;;;;;;5086887;28;20190;-90
2023/01/22 05:16:30;;;;;;;8.87;7.97;;;1.00;99.90;;;;;;5083839;28;20202;-90
2023/01/22 05:18:56;;;;;;;8.47;7.33;;;1.00;99.90;;;;;;5077577;28;20203;-89
2023/01/22 05:21:22;;;;;;;9.67;8.03;;;1.10;99.90;;;;;;5084581;28;20180;-89
2023/01/22 05:23:48;;;;;;;8.17;7.17;;;1.10;99.90;;;;;;5083549;28;20179;-88
2023/01/22 05:26:13;;;;;;;8.17;7.33;;;1.10;99.90;;;;;;5084678;28;20589;-89
2023/01/22 05:28:39;;;;;;;8.97;8.07;;;1.20;99.90;;;;;;5083762;28;20222;-89
2023/01/22 05:31:05;;;;;;;9.80;8.03;;;1.20;99.90;;;;;;5066102;28;20187;-88
2023/01/22 05:33:31;;;;;;;8.73;7.47;;;1.20;99.90;;;;;;5083419;28;20182;-90
2023/01/22 05:35:59;;;;;;;8.63;7.83;;;1.20;99.90;;;;;;5083462;28;20186;-89
2023/01/22 05:38:25;;;;;;;8.10;7.30;;;1.10;99.90;;;;;;5064769;28;20225;-89
2023/01/22 05:40:52;;;;;;;8.70;7.33;;;1.00;99.90;;;;;;5084961;28;20192;-89
2023/01/22 05:43:18;;;;;;;10.27;8.03;;;1.00;99.90;;;;;;5066591;28;20179;-88
2023/01/22 05:45:44;;;;;;;9.23;7.33;;;0.90;99.90;;;;;;5082792;28;20190;-88
2023/01/22 05:48:09;;;;;;;9.83;7.97;;;0.90;99.90;;;;;;5080588;28;20199;-89
2023/01/22 05:50:35;;;;;;;8.57;7.63;;;1.00;99.90;;;;;;5080525;28;20184;-88
2023/01/22 05:53:01;;;;;;;8.83;7.60;;;0.90;99.90;;;;;;5082727;28;20201;-88
2023/01/22 05:55:28;;;;;;;9.73;8.07;;;0.90;99.90;;;;;;5082820;28;20243;-88
2023/01/22 05:57:54;;;;;;;9.20;7.40;;;0.90;99.90;;;;;;5082756;28;20211;-89
2023/01/22 06:00:20;;;;;;;8.70;7.50;;;0.90;99.90;;;;;;5080942;28;20209;-88
2023/01/22 06:02:46;;;;;;;8.13;7.30;;;1.00;99.90;;;;;;5044795;28;20200;-89
2023/01/22 06:05:12;;;;;;;7.80;6.77;;;0.90;99.90;;;;;;5062883;28;20176;-89
2023/01/22 06:07:38;;;;;;;8.67;7.77;;;0.90;99.90;;;;;;5062104;28;20200;-90
2023/01/22 06:10:04;;;;;;;7.57;6.67;;;1.00;99.90;;;;;;5062272;28;20184;-88
2023/01/22 06:12:29;;;;;;;7.37;6.67;;;1.00;99.90;;;;;;5061711;28;20200;-88
2023/01/22 06:14:55;;;;;;;8.07;7.13;;;1.10;99.90;;;;;;5070843;28;20211;-89
2023/01/22 06:17:21;;;;;;;7.40;6.60;;;1.10;99.90;;;;;;5082062;28;20215;-88
2023/01/22 06:19:47;;;;;;;8.17;7.37;;;1.10;99.90;;;;;;5082286;28;20175;-87
2023/01/22 06:22:12;;;;;;;8.23;7.20;;;1.10;99.90;;;;;;5082030;28;20180;-88
2023/01/22 06:24:38;;;;;;;8.73;7.40;;;1.20;99.90;;;;;;5081005;28;20553;-90
2023/01/22 06:27:04;;;;;;;8.17;7.30;;;1.20;99.90;;;;;;5080351;28;20199;-88
2023/01/22 06:29:30;;;;;;;8.73;7.43;;;1.20;99.90;;;;;;5080997;28;20214;-88
2023/01/22 06:31:56;;;;;;;8.63;7.43;;;1.20;99.90;;;;;;5081209;28;20207;-89
2023/01/22 06:34:22;;;;;;;15.23;13.63;;;1.00;99.90;;;;;;5083030;28;20183;-90
2023/01/22 06:36:47;;;;;;;10.77;9.60;;;1.00;99.90;;;;;;5084659;28;20199;-88
2023/01/22 06:39:13;;;;;;;11.03;9.83;;;0.90;99.90;;;;;;5085046;28;20186;-89
2023/01/22 06:41:39;;;;;;;11.57;10.47;;;0.90;99.90;;;;;;5085714;28;20176;-89
2023/01/22 06:44:05;;;;;;;12.37;11.17;;;0.90;99.90;;;;;;5086081;28;20250;-90
2023/01/22 06:46:30;;;;;;;10.27;9.10;;;1.00;99.90;;;;;;5086655;28;20176;-89
2023/01/22 06:48:57;;;;;;;9.37;8.37;;;0.90;99.90;;;;;;5096717;28;20199;-90
2023/01/22 06:51:24;;;;;;;7.77;6.83;;;0.90;99.90;;;;;;5098544;28;20171;-89
2023/01/22 06:53:50;;;;;;;8.00;7.20;;;0.90;99.90;;;;;;5098029;28;20168;-88
2023/01/22 06:56:15;;;;;;;8.37;7.17;;;0.90;99.90;;;;;;5098506;28;20215;-94
2023/01/22 06:58:41;;;;;;;8.50;7.03;;;1.00;99.90;;;;;;5078963;28;20204;-89
2023/01/22 07:01:07;;;;;;;7.73;6.93;;;1.00;99.90;;;;;;5065920;28;20192;-92
2023/01/22 07:03:32;;;;;;;8.77;7.27;;;1.00;99.90;;;;;;5083211;28;20192;-86
2023/01/22 07:06:00;;;;;;;7.40;6.70;;;1.00;99.90;;;;;;5086109;28;20171;-85
2023/01/22 07:08:27;;;;;;;6.73;6.07;;;1.00;99.90;;;;;;5086029;28;20191;-86
2023/01/22 07:10:53;;;;;;;8.00;7.20;;;1.00;99.90;;;;;;5084313;28;20192;-88
2023/01/22 07:13:19;;;;;;;8.10;6.90;;;1.10;99.90;;;;;;5066940;28;20773;-85
2023/01/22 07:15:44;;;;;;;8.23;7.43;;;1.10;99.90;;;;;;5065583;28;20185;-86
2023/01/22 07:18:13;;;;;;;7.77;7.07;;;1.10;99.90;;;;;;5082646;28;20315;-84
2023/01/22 07:20:40;;;;;;;7.53;6.80;;;1.20;99.90;;;;;;5086386;28;20206;-87
2023/01/22 07:23:07;;;;;;;8.13;7.33;;;1.10;99.90;;;;;;5087093;28;20187;-87
2023/01/22 07:25:33;;;;;;;7.87;6.93;;;1.10;99.90;;;;;;5088430;28;20188;-87
2023/01/22 07:28:03;;;;;;;9.10;8.17;;;1.10;99.90;;;;;;5070324;28;20218;-86
2023/01/22 07:30:29;;;;;;;12.43;11.23;;;1.20;99.90;;;;;;5070098;28;20211;-87
2023/01/22 07:32:59;;;;;;;14.27;12.83;;;1.20;99.90;;;;;;5070495;28;20226;-87
2023/01/22 07:35:25;;;;;;;9.13;8.17;;;1.20;99.90;;;;;;5071410;28;20211;-87
2023/01/22 07:37:52;;;;;;;9.40;8.50;;;1.30;99.90;;;;;;5070783;28;20218;-86
2023/01/22 07:40:18;;;;;;;9.43;8.53;;;1.30;99.90;;;;;;5089073;28;20179;-87
2023/01/22 07:42:44;;;;;;;8.70;7.93;;;1.40;99.90;;;;;;5089265;28;20176;-87
2023/01/22 07:45:10;;;;;;;8.63;7.73;;;1.30;99.90;;;;;;5072289;28;20178;-86
2023/01/22 07:47:36;;;;;;;8.77;7.50;;;1.30;99.90;;;;;;5088338;28;20196;-86
2023/01/22 07:50:02;;;;;;;8.90;8.00;;;1.40;99.90;;;;;;5089304;28;20242;-88
2023/01/22 07:52:29;;;;;;;7.77;7.07;;;1.40;99.90;;;;;;5087629;28;20207;-87
2023/01/22 07:54:58;;;;;;;7.70;6.90;;;1.40;99.90;;;;;;5068654;28;20203;-86
2023/01/22 07:57:24;;;;;;;7.30;6.60;;;1.50;99.90;;;;;;5080032;28;20234;-86
2023/01/22 07:59:49;;;;;;;8.03;7.23;;;1.50;99.90;;;;;;5087669;28;20180;-87
2023/01/22 08:02:15;;;;;;;7.47;6.73;;;1.50;99.90;;;;;;5049959;28;20215;-88
2023/01/22 08:04:41;;;;;;;7.97;7.10;;;1.50;99.90;;;;;;5048821;28;20298;-88
2023/01/22 08:07:18;;;;;;;7.87;7.13;;;1.60;99.90;;;;;;5048914;28;20204;-89
2023/01/22 08:09:43;;;;;;;7.33;6.63;;;1.60;99.90;;;;;;5066174;28;20172;-87
2023/01/22 08:12:10;;;;;;;7.37;6.67;;;1.50;99.90;;;;;;5067898;28;20624;-87
2023/01/22 08:14:35;;;;;;;6.77;6.13;;;1.60;99.90;;;;;;5068529;28;20291;-87
2023/01/22 08:17:08;;;;;;;7.30;6.60;;;1.60;99.90;;;;;;5075071;28;20572;-86
2023/01/22 08:19:34;;;;;;;8.87;7.57;;;1.70;99.90;;;;;;5083729;28;20193;-87
2023/01/22 08:22:00;;;;;;;7.40;6.77;;;1.60;99.90;;;;;;5075810;28;20172;-88
2023/01/22 08:24:25;;;;;;;9.20;7.50;;;1.70;99.90;;;;;;5085499;28;20182;-86
2023/01/22 08:26:51;;;;;;;8.20;7.40;;;1.60;99.90;;;;;;5087905;28;20187;-87
2023/01/22 08:29:17;;;;;;;9.07;8.17;;;1.60;99.90;;;;;;5084638;28;20234;-87
2023/01/22 08:31:42;;;;;;;9.40;8.40;;;1.60;99.90;;;;;;5085999;28;20214;-87
2023/01/22 08:34:08;;;;;;;9.50;8.57;;;1.60;99.90;;;;;;5086893;28;20175;-85
2023/01/22 08:36:34;;;;;;;9.70;8.67;;;1.60;99.90;;;;;;5084192;28;20926;-88
2023/01/22 08:39:00;;;;;;;8.83;8.03;;;1.60;99.90;;;;;;5084448;28;20195;-89
2023/01/22 08:41:26;;;;;;;8.17;7.47;;;1.50;99.90;;;;;;5085170;28;20232;-89
2023/01/22 08:43:52;;;;;;;8.90;8.00;;;1.60;99.90;;;;;;5085655;28;20190;-88
2023/01/22 08:46:19;;;;;;;8.90;7.70;;;1.70;99.90;;;;;;5070209;28;20213;-87
2023/01/22 08:48:46;;;;;;;8.67;7.77;;;1.70;99.90;;;;;;5056802;28;20693;-89
2023/01/22 08:51:12;;;;;;;10.00;9.00;;;1.70;99.90;;;;;;5058595;28;20195;-87
2023/01/22 08:53:38;;;;;;;11.20;10.00;;;1.80;99.90;;;;;;5054165;28;20210;-89
2023/01/22 08:56:04;;;;;;;9.17;8.27;;;1.80;99.90;;;;;;5055672;28;20582;-91
2023/01/22 08:58:30;;;;;;;9.93;8.90;;;1.70;99.90;;;;;;5052285;28;20203;-90
2023/01/22 09:00:56;;;;;;;11.57;10.17;;;1.70;99.90;;;;;;5067851;28;20179;-88
2023/01/22 09:03:22;;;;;;;8.23;7.40;;;1.80;99.90;;;;;;5072263;28;20609;-90
2023/01/22 09:05:54;;;;;;;8.93;7.77;;;1.80;99.90;;;;;;5050320;28;20748;-85
2023/01/22 09:08:20;;;;;;;10.60;9.27;;;1.90;99.90;;;;;;5053829;28;20211;-87
2023/01/22 09:10:46;;;;;;;10.43;9.37;;;1.90;99.90;;;;;;5075658;28;20192;-90
2023/01/22 09:13:12;;;;;;;9.03;8.13;;;1.80;99.90;;;;;;5060404;28;20192;-89
2023/01/22 09:15:39;;;;;;;8.63;7.83;;;1.80;99.90;;;;;;5076544;28;20219;-87
2023/01/22 09:18:05;;;;;;;10.37;9.37;;;1.80;99.90;;;;;;5075541;28;20226;-86
2023/01/22 09:20:32;;;;;;;10.53;8.63;;;1.80;99.90;;;;;;5059197;28;20194;-87
2023/01/22 09:22:58;;;;;;;9.53;8.10;;;1.80;99.90;;;;;;5072664;28;20188;-89
2023/01/22 09:25:25;;;;;;;8.93;8.03;;;1.80;99.90;;;;;;5060345;28;20216;-87
2023/01/22 09:27:58;;;;;;;9.10;7.93;;;1.70;99.90;;;;;;5075755;28;20204;-89
2023/01/22 09:30:25;;;;;;;8.53;7.47;;;1.70;99.90;;;;;;5078677;28;20188;-86
2023/01/22 09:32:51;;;;;;;10.70;7.47;;;1.60;99.90;;;;;;5060392;28;20203;-86
2023/01/22 09:35:18;;;;;;;8.23;7.40;;;1.60;99.90;;;;;;5055538;28;20199;-85
2023/01/22 09:37:44;;;;;;;12.07;10.90;;;1.60;99.90;;;;;;5055009;28;20427;-86
2023/01/22 09:40:22;;;;;;;9.57;8.47;;;1.70;99.90;;;;;;5049835;28;20260;-87
2023/01/22 09:42:49;;;;;;;9.67;8.67;;;1.50;99.90;;;;;;5067557;28;20194;-91
2023/01/22 09:45:18;;;;;;;7.10;6.40;;;1.60;99.90;;;;;;5064205;28;20244;-86
2023/01/22 09:47:47;;;;;;;7.40;6.70;;;1.50;99.90;;;;;;5064978;28;20203;-86
2023/01/22 09:50:28;;;;;;;8.10;7.27;;;1.50;99.90;;;;;;5059564;28;20210;-87
2023/01/22 09:52:57;;;;;;;8.57;7.30;;;1.50;99.90;;;;;;5063311;28;20237;-85
2023/01/22 09:55:28;;;;;;;10.97;9.97;;;1.50;99.90;;;;;;5061196;28;20198;-91
2023/01/22 09:57:55;;;;;;;9.50;8.60;;;1.60;99.90;;;;;;5047003;28;20219;-85
2023/01/22 10:00:43;;;;;;;8.87;8.07;;;1.60;99.90;;;;;;5044323;28;20684;-86
2023/01/22 10:03:36;;;;;;;7.53;6.80;;;1.70;99.90;;;;;;5043365;28;20200;-87
2023/01/22 10:06:20;;;;;;;8.23;7.43;;;1.70;99.90;;;;;;5065301;28;20628;-86
2023/01/22 10:09:17;;;;;;;8.37;7.57;;;1.70;99.90;;;;;;5069125;28;20640;-85
2023/01/22 10:11:48;;;;;;;7.17;6.53;;;1.60;99.90;;;;;;5074155;28;20580;-85
2023/01/22 10:14:17;;;;;;;8.73;7.83;;;1.70;99.90;;;;;;5064272;28;20196;-87
2023/01/22 10:16:44;;;;;;;7.93;7.20;;;1.70;99.90;;;;;;5065164;28;20233;-87
2023/01/22 10:19:34;;;;;;;7.30;6.60;;;1.70;99.90;;;;;;5066982;28;20207;-86
2023/01/22 10:22:05;;;;;;;11.33;10.43;;;1.70;99.90;;;;;;5067195;28;20191;-87
2023/01/22 10:24:31;;;;;;;10.07;9.17;;;1.70;99.90;;;;;;5062972;28;20253;-87
2023/01/22 10:26:58;;;;;;;9.10;8.20;;;1.70;99.90;;;;;;5063095;28;20187;-87
2023/01/22 10:29:33;;;;;;;8.30;7.60;;;1.70;99.90;;;;;;5065451;28;20203;-86
2023/01/22 10:32:00;;;;;;;8.37;7.57;;;1.70;99.90;;;;;;5067517;28;20222;-86
2023/01/22 10:34:33;;;;;;;8.23;7.53;;;1.80;99.90;;;;;;5066346;28;20188;-86
2023/01/22 10:37:19;;;;;;;9.73;8.83;;;1.80;99.90;;;;;;5066672;28;20230;-87
2023/01/22 10:39:46;;;;;;;8.47;7.77;;;1.80;99.90;;;;;;5067224;28;20290;-87
2023/01/22 10:42:21;;;;;;;7.77;7.07;;;1.80;99.90;;;;;;5049782;28;20184;-86
2023/01/22 10:44:47;;;;;;;8.13;7.33;;;1.80;99.90;;;;;;5062512;28;20191;-86
2023/01/22 10:47:22;;;;;;;14.03;12.63;;;2.00;99.90;;;;;;5048104;28;20219;-88
2023/01/22 10:50:04;;;;;;;9.70;8.77;;;2.10;99.90;;;;;;5068401;28;20659;-86
2023/01/22 10:52:37;;;;;;;8.50;7.70;;;2.10;99.90;;;;;;5066294;28;20216;-89
2023/01/22 10:55:04;;;;;;;8.90;8.10;;;2.00;99.90;;;;;;5072946;28;20207;-92
2023/01/22 10:57:34;;;;;;;7.67;6.97;;;2.00;99.90;;;;;;5079962;28;20247;-86
2023/01/22 11:00:15;;;;;;;7.90;7.03;;;2.00;99.90;;;;;;5071704;28;20191;-87
2023/01/22 11:02:46;;;;;;;7.13;6.50;;;2.00;99.90;;;;;;5071198;28;20292;-86
2023/01/22 11:05:33;;;;;;;8.90;8.17;;;2.00;99.90;;;;;;5066433;28;20246;-86
2023/01/22 11:08:02;;;;;;;8.30;6.80;;;2.00;99.90;;;;;;5069178;28;20210;-87
2023/01/22 11:10:54;;;;;;;7.50;6.80;;;1.90;99.90;;;;;;5052396;28;20673;-86
2023/01/22 11:13:26;;;;;;;7.37;6.73;;;1.90;99.90;;;;;;5051204;28;20268;-88
2023/01/22 11:16:08;;;;;;;6.97;6.27;;;2.00;99.90;;;;;;5069329;28;20680;-88
2023/01/22 11:18:44;;;;;;;9.13;8.17;;;2.00;99.90;;;;;;5065352;28;20204;-86
2023/01/22 11:21:15;;;;;;;7.70;6.90;;;2.00;99.90;;;;;;5067183;28;20178;-86
2023/01/22 11:23:41;;;;;;;9.53;8.73;;;2.10;99.90;;;;;;5050094;28;20195;-85
2023/01/22 11:26:47;;;;;;;8.97;8.07;;;2.10;99.90;;;;;;5067019;28;20268;-87
2023/01/22 11:29:33;;;;;;;7.50;6.80;;;2.20;99.90;;;;;;5003121;28;20240;-88
2023/01/22 11:32:36;;;;;;;8.30;7.40;;;2.10;99.90;;;;;;5002536;28;20190;-86
2023/01/22 11:35:28;;;;;;;7.57;6.87;;;2.00;99.90;;;;;;5060411;28;20200;-86
2023/01/22 11:38:09;;;;;;;8.17;7.47;;;2.00;99.90;;;;;;5074981;28;20311;-85
2023/01/22 11:40:45;;;;;;;8.07;6.67;;;2.10;99.90;;;;;;5072579;28;20202;-88
2023/01/22 11:43:37;;;;;;;7.77;7.07;;;2.10;99.90;;;;;;5069460;28;20188;-91
2023/01/22 11:46:19;;;;;;;10.57;7.67;;;2.10;99.90;;;;;;5077034;28;20179;-87
2023/01/22 11:48:57;;;;;;;7.57;6.90;;;2.10;99.90;;;;;;5055971;28;20210;-85
2023/01/22 11:51:32;;;;;;;8.60;7.70;;;2.10;99.90;;;;;;5081375;28;20176;-86
2023/01/22 11:54:27;;;;;;;8.50;7.10;;;2.20;99.90;;;;;;5066593;28;20183;-85
2023/01/22 11:57:08;;;;;;;8.00;7.30;;;2.30;99.90;;;;;;5071054;28;20211;-86
2023/01/22 11:59:59;;;;;;;8.20;7.33;;;2.40;99.90;;;;;;5069748;28;20183;-85
2023/01/22 12:02:45;;;;;;;7.90;6.90;;;2.60;99.90;;;;;;5025622;28;20226;-86
2023/01/22 12:05:35;;;;;;;8.77;7.87;;;2.80;99.90;;;;;;5061831;28;20202;-86
2023/01/22 12:08:31;;;;;;;9.23;8.33;;;2.90;99.90;;;;;;5069323;28;20211;-87
2023/01/22 12:11:02;;;;;;;9.30;8.50;;;2.90;99.90;;;;;;5050308;28;20203;-86
2023/01/22 12:13:34;;;;;;;9.37;7.93;;;2.70;99.90;;;;;;5071301;28;20184;-86
2023/01/22 12:16:22;;;;;;;9.07;8.10;;;2.70;99.90;;;;;;5052148;28;20250;-86
2023/01/22 12:19:01;;;;;;;8.63;7.83;;;2.60;99.90;;;;;;5069827;28;20208;-89
2023/01/22 12:21:38;;;;;;;8.47;7.67;;;2.60;99.90;;;;;;5056177;28;20194;-85
2023/01/22 12:24:33;;;;;;;8.03;7.30;;;2.70;99.90;;;;;;5071692;28;20183;-87
2023/01/22 12:27:16;;;;;;;9.30;8.30;;;2.80;99.90;;;;;;5070417;28;20191;-88
2023/01/22 12:29:44;;;;;;;8.27;7.47;;;2.90;99.90;;;;;;5069106;28;20228;-86
2023/01/22 12:32:14;;;;;;;7.97;7.27;;;3.00;99.90;;;;;;5070669;28;20188;-86
2023/01/22 12:35:07;;;;;;;7.90;7.10;;;3.10;99.90;;;;;;5069741;28;20180;-87
2023/01/22 12:38:09;;;;;;;9.00;8.10;;;3.10;99.90;;;;;;5070080;28;20238;-87
2023/01/22 12:40:43;;;;;;;12.13;11.00;;;3.20;99.90;;;;;;5037372;28;20191;-88
2023/01/22 12:43:09;;;;;;;7.90;6.93;;;3.20;99.90;;;;;;5065844;28;20556;-88
2023/01/22 12:45:46;;;;;;;7.23;6.53;;;3.30;99.90;;;;;;5065983;28;20261;-88
2023/01/22 12:48:18;;;;;;;7.40;6.70;;;3.20;99.90;;;;;;5064433;28;20203;-86
2023/01/22 12:50:54;;;;;;;8.93;8.00;;;3.30;99.90;;;;;;5065590;28;20180;-88
2023/01/22 12:53:27;;;;;;;10.10;9.17;;;3.20;99.90;;;;;;5065783;28;21346;-86
2023/01/22 12:56:10;;;;;;;10.90;9.87;;;3.20;99.90;;;;;;5056766;28;20206;-90
2023/01/22 12:58:38;;;;;;;8.97;8.17;;;3.20;99.90;;;;;;5085487;28;20322;-89
2023/01/22 13:01:12;;;;;;;7.13;6.43;;;3.10;99.90;;;;;;5085140;28;20206;-89
2023/01/22 13:03:39;;;;;;;6.20;5.70;;;3.10;99.90;;;;;;5062497;28;20244;-92
2023/01/22 13:06:19;;;;;;;6.90;6.30;;;3.20;99.90;;;;;;5072386;28;20210;-87
2023/01/22 13:08:45;;;;;;;6.73;6.03;;;3.20;99.90;;;;;;5066035;28;20360;-87
2023/01/22 13:11:25;;;;;;;6.73;6.03;;;3.10;99.90;;;;;;5065102;28;20234;-85
2023/01/22 13:14:15;;;;;;;6.63;6.03;;;3.10;99.90;;;;;;5068060;28;20203;-87